FVFA

Victoria Falls International Airport

Victoria Falls, Zimbabwe
METAR FVFA 221200Z 08008KT 360V150 CAVOK 26/08 Q1020 NOSIG
Observed Flight Rules
May-22 @ 12:00 UTC (23 hours ago) Visual Flight Rules
Wind Visibility Clouds
80° at 8 knots 10,000+ meters
  • Clear skies
Temperatures Readings
Current 26°C / 79°F
Dewpoint 8°C / 46°F
Humidity 32%
Altimeter 30.12" Hg
Pressure 1020 hPa
Elevation 1062
METAR FVFA 221200Z 08008KT 360V150 CAVOK 26/08 Q1020 NOSIG
Observed Flight Rules
May-22 @ 12:00 UTC
(23 hours ago)
VFR
Wind Visibility
80° at 8 knots 10,000+ meters
Clouds
  • Clear skies
Temperature Dewpoint
26°C / 79°F 8°C / 46°F
Humidity Altimeter Pressure
32% 30.12" Hg 1020 hPa